logo
Search for airport 
image banner adimage banner adimage banner ad
image banner ad

LTCS - Sanliurfa Gap

Located in Sanliurfa, Turkey

ICAO - LTCS, IATA - GNY

Data provided by Airmate  

General information

Coordinates: N37°27'24" E38°54'29"
Elevation is 2708 feet MSL.
Magnetic variation is 5.5° East
View others Airports in Sanliurfa

Operational data

Special qualification required
Current time UTC:
Current local time:
Weather
METAR: LTCS 232020Z 36012KT CAVOK 31/06 Q1005 RMK RWY22 33014KT SKC
TAF: TAF LTCS 231640Z 2318/2418 35009KT CAVOK
View NOTAMs / SUP AIP / TFR affecting this airport [VIEW]
Communications frequencies: [VIEW]

Runways:

RWY identifierQFULength (ft)Width (ft)SurfaceLDA (ft)
0442°13123148CONC13123
22222°13123148CONC13123

Airport contact information

Address: Sanliurfa Turkey

Satellite view of LTCS